createdAt,value
2022-10-22T00:01:24.695Z,98001.25
2022-10-22T00:03:53.055Z,98006.50
2022-10-22T00:06:21.268Z,98003.28
2022-10-22T00:08:51.229Z,97988.88
2022-10-22T00:11:21.689Z,97993.03
2022-10-22T00:13:50.510Z,97989.31
2022-10-22T00:16:19.134Z,97989.53
2022-10-22T00:18:47.367Z,97973.16
2022-10-22T00:21:15.713Z,97981.00
2022-10-22T00:23:44.545Z,97982.78
2022-10-22T00:26:14.306Z,97983.72
2022-10-22T00:28:42.604Z,97978.66
2022-10-22T00:31:11.878Z,97969.63
2022-10-22T00:33:40.308Z,97978.56
2022-10-22T00:36:09.763Z,97985.59
2022-10-22T00:38:38.097Z,97987.44
2022-10-22T00:41:06.692Z,97990.13
2022-10-22T00:43:54.868Z,97986.22
2022-10-22T00:46:23.237Z,97984.31
2022-10-22T00:48:52.417Z,97989.94
2022-10-22T00:51:23.373Z,97997.59
2022-10-22T00:53:56.077Z,97986.41
2022-10-22T00:56:25.624Z,97987.84
2022-10-22T00:58:58.816Z,97980.00
2022-10-22T01:01:31.680Z,97981.97
2022-10-22T01:04:00.244Z,97979.38
2022-10-22T01:06:32.231Z,97983.63
2022-10-22T01:09:13.877Z,97984.56
2022-10-22T01:11:55.458Z,97973.94
2022-10-22T01:14:32.859Z,97969.00
2022-10-22T01:17:06.057Z,97963.69
2022-10-22T01:20:05.277Z,97953.66
2022-10-22T01:22:37.220Z,97952.59
2022-10-22T01:25:12.668Z,97933.53
2022-10-22T01:27:58.375Z,97931.34
2022-10-22T01:30:28.139Z,97924.19
2022-10-22T01:33:00.915Z,97929.59
2022-10-22T01:35:35.740Z,97934.75
2022-10-22T01:38:06.893Z,97942.03
2022-10-22T01:40:36.577Z,97969.59
2022-10-22T01:43:07.568Z,97979.03
2022-10-22T01:45:41.395Z,97984.34
2022-10-22T01:48:27.165Z,97980.50
2022-10-22T01:51:14.599Z,97973.84
2022-10-22T01:53:52.368Z,97978.31
2022-10-22T01:56:37.241Z,97973.97
2022-10-22T01:59:15.279Z,97976.44
2022-10-22T02:01:55.013Z,97987.75
2022-10-22T02:04:30.779Z,97987.34
2022-10-22T02:07:04.286Z,97979.66
2022-10-22T02:09:33.976Z,97976.66
2022-10-22T02:12:06.646Z,97975.53
2022-10-22T02:14:36.995Z,97982.88
2022-10-22T02:17:12.354Z,97994.81
2022-10-22T02:19:49.300Z,98013.97
2022-10-22T02:22:17.749Z,98003.53
2022-10-22T02:24:46.178Z,97995.94
2022-10-22T02:27:26.014Z,98002.78
2022-10-22T02:30:03.277Z,97993.47
2022-10-22T02:32:41.873Z,97984.34
2022-10-22T02:35:16.421Z,97983.50
2022-10-22T02:37:45.305Z,97987.44
2022-10-22T02:40:13.996Z,97986.59
2022-10-22T02:42:43.422Z,97989.81
2022-10-22T02:45:12.070Z,97994.91
2022-10-22T02:47:41.725Z,97998.66
2022-10-22T02:50:10.609Z,98003.22
2022-10-22T02:52:39.529Z,98000.50
2022-10-22T02:55:09.112Z,97998.44
2022-10-22T02:57:37.694Z,97999.25
2022-10-22T03:00:15.442Z,97998.53
2022-10-22T03:02:45.161Z,98007.78
2022-10-22T03:05:13.689Z,97991.41
2022-10-22T03:07:42.291Z,97985.59
2022-10-22T03:10:11.401Z,97979.53
2022-10-22T03:12:39.591Z,97976.88
2022-10-22T03:15:08.543Z,97965.47
2022-10-22T03:17:36.982Z,97972.75
2022-10-22T03:20:08.992Z,97984.13
2022-10-22T03:22:40.191Z,97977.91
2022-10-22T03:25:13.395Z,97974.47
2022-10-22T03:27:43.303Z,97973.97
2022-10-22T03:30:12.993Z,97958.63
2022-10-22T03:32:41.202Z,97969.72
2022-10-22T03:35:11.127Z,97971.50
2022-10-22T03:37:40.127Z,97965.03
2022-10-22T03:40:11.514Z,97959.25
2022-10-22T03:42:40.160Z,97954.88
2022-10-22T03:45:09.960Z,97960.88
2022-10-22T03:47:38.719Z,97953.13
2022-10-22T03:50:10.838Z,97955.81
2022-10-22T03:52:41.224Z,97959.88
2022-10-22T03:55:10.602Z,97960.88
2022-10-22T03:57:39.092Z,97968.06
2022-10-22T04:00:09.992Z,97984.53
2022-10-22T04:02:38.880Z,97976.97
2022-10-22T04:05:09.942Z,97972.91
2022-10-22T04:07:38.391Z,97971.56
2022-10-22T04:10:08.121Z,97969.91
2022-10-22T04:12:36.459Z,97965.69
2022-10-22T04:15:05.320Z,97967.44
2022-10-22T04:17:37.847Z,97993.44
2022-10-22T04:20:07.597Z,98005.38
2022-10-22T04:22:37.794Z,98010.06
2022-10-22T04:25:06.874Z,98001.66
2022-10-22T04:27:36.530Z,98004.63
2022-10-22T04:30:07.494Z,97990.16
2022-10-22T04:32:35.835Z,97991.16
2022-10-22T04:35:04.638Z,97990.97
2022-10-22T04:37:34.194Z,97992.81
2022-10-22T04:40:03.949Z,97990.22
2022-10-22T04:42:32.890Z,97988.78
2022-10-22T04:45:01.088Z,97997.81
2022-10-22T04:47:29.405Z,98000.47
2022-10-22T04:49:57.693Z,98001.94
2022-10-22T04:52:25.961Z,98000.47
2022-10-22T04:54:54.240Z,98012.28
2022-10-22T04:57:23.793Z,98012.09
2022-10-22T04:59:52.159Z,98006.72
2022-10-22T05:02:20.355Z,98015.44
2022-10-22T05:04:48.674Z,98008.78
2022-10-22T05:07:16.888Z,98011.28
2022-10-22T05:09:45.210Z,98015.63
2022-10-22T05:12:13.449Z,98015.44
2022-10-22T05:14:44.782Z,98018.72
2022-10-22T05:17:13.274Z,98030.97
2022-10-22T05:19:41.560Z,98032.31
2022-10-22T05:22:09.849Z,98025.91
2022-10-22T05:24:38.422Z,98030.34
2022-10-22T05:27:06.809Z,98027.88
2022-10-22T05:29:35.058Z,98025.16
2022-10-22T05:32:05.229Z,98039.06
2022-10-22T05:34:36.138Z,98039.06
2022-10-22T05:37:04.608Z,98042.19
2022-10-22T05:39:36.579Z,98055.25
2022-10-22T05:42:05.081Z,98059.38
2022-10-22T05:44:33.445Z,98063.09
2022-10-22T05:47:01.646Z,98069.22
2022-10-22T05:49:31.475Z,98087.38
2022-10-22T05:51:59.704Z,98094.00
2022-10-22T05:54:28.157Z,98099.94
2022-10-22T05:56:56.545Z,98107.53
2022-10-22T05:59:24.825Z,98104.19
2022-10-22T06:01:53.246Z,98125.66
2022-10-22T06:04:21.559Z,98113.53
2022-10-22T06:06:54.228Z,98109.88
2022-10-22T06:09:26.260Z,98110.81
2022-10-22T06:11:55.245Z,98124.19
2022-10-22T06:14:24.596Z,98120.13
2022-10-22T06:16:53.529Z,98128.94
2022-10-22T06:19:25.751Z,98134.22
2022-10-22T06:21:55.691Z,98142.63
2022-10-22T06:24:24.096Z,98150.31
2022-10-22T06:26:53.045Z,98154.56
2022-10-22T06:29:21.689Z,98147.50
2022-10-22T06:31:50.297Z,98138.50
2022-10-22T06:34:19.671Z,98148.56
2022-10-22T06:36:48.707Z,98156.06
2022-10-22T06:39:19.384Z,98161.72
2022-10-22T06:41:47.776Z,98165.88
2022-10-22T06:44:22.501Z,98172.44
2022-10-22T06:46:52.014Z,98167.47
2022-10-22T06:49:21.490Z,98173.38
2022-10-22T06:51:51.555Z,98173.91
2022-10-22T06:54:21.355Z,98184.28
2022-10-22T06:56:49.850Z,98190.13
2022-10-22T06:59:18.084Z,98197.63
2022-10-22T07:01:46.476Z,98192.00
2022-10-22T07:04:15.431Z,98202.38
2022-10-22T07:06:43.758Z,98203.97
2022-10-22T07:09:12.099Z,98209.97
2022-10-22T07:11:44.787Z,98219.03
2022-10-22T07:14:14.406Z,98220.06
2022-10-22T07:16:43.147Z,98223.78
2022-10-22T07:19:11.576Z,98226.25
2022-10-22T07:21:40.272Z,98223.13
2022-10-22T07:24:09.348Z,98230.38
2022-10-22T07:26:37.639Z,98233.94
2022-10-22T07:29:07.344Z,98239.09
2022-10-22T07:31:35.768Z,98239.09
2022-10-22T07:34:04.149Z,98239.19
2022-10-22T07:36:32.529Z,98243.44
2022-10-22T07:39:02.240Z,98243.88
2022-10-22T07:41:31.554Z,98249.00
2022-10-22T07:44:00.583Z,98251.47
2022-10-22T07:46:30.511Z,98251.59
2022-10-22T07:48:59.000Z,98256.66
2022-10-22T07:51:27.549Z,98253.88
2022-10-22T07:53:56.262Z,98258.88
2022-10-22T07:56:24.841Z,98260.41
2022-10-22T07:58:53.297Z,98250.88
2022-10-22T08:01:21.651Z,98251.41
2022-10-22T08:03:51.280Z,98258.44
2022-10-22T08:06:19.657Z,98258.16
2022-10-22T08:08:48.072Z,98253.25
2022-10-22T08:11:16.473Z,98276.41
2022-10-22T08:13:45.779Z,98265.09
2022-10-22T08:16:15.868Z,98273.63
2022-10-22T08:18:44.315Z,98284.00
2022-10-22T08:21:14.485Z,98273.22
2022-10-22T08:23:42.948Z,98276.25
2022-10-22T08:26:11.599Z,98278.00
2022-10-22T08:28:39.906Z,98273.66
2022-10-22T08:31:09.616Z,98276.75
2022-10-22T08:33:38.714Z,98279.69
2022-10-22T08:36:08.196Z,98279.28
2022-10-22T08:38:38.096Z,98274.09
2022-10-22T08:41:13.274Z,98271.38
2022-10-22T08:44:39.042Z,98274.63
2022-10-22T08:47:31.397Z,98271.31
2022-10-22T08:50:01.407Z,98275.34
2022-10-22T08:52:29.775Z,98273.06
2022-10-22T08:55:00.916Z,98271.00
2022-10-22T08:57:58.039Z,98275.78
2022-10-22T09:00:32.430Z,98278.88
2022-10-22T09:03:20.409Z,98275.38
2022-10-22T09:05:57.657Z,98286.06
2022-10-22T09:08:26.183Z,98276.63
2022-10-22T09:11:03.637Z,98287.00
2022-10-22T09:13:31.900Z,98281.69
2022-10-22T09:16:02.859Z,98288.59
2022-10-22T09:18:40.783Z,98269.13
2022-10-22T09:21:21.990Z,98278.78
2022-10-22T09:24:04.476Z,98287.56
2022-10-22T09:26:38.945Z,98279.06
2022-10-22T09:29:07.960Z,98285.38
2022-10-22T09:31:36.556Z,98281.75
2022-10-22T09:34:07.650Z,98293.75
2022-10-22T09:36:36.458Z,98293.22
2022-10-22T09:39:05.279Z,98287.81
2022-10-22T09:41:34.909Z,98285.59
2022-10-22T09:44:03.292Z,98292.13
2022-10-22T09:46:43.916Z,98290.53
2022-10-22T09:49:16.240Z,98284.66
2022-10-22T09:51:53.015Z,98296.75
2022-10-22T09:54:25.357Z,98300.53
2022-10-22T09:56:58.871Z,98311.00
2022-10-22T09:59:32.410Z,98307.03
2022-10-22T10:02:19.591Z,98308.47
2022-10-22T10:04:58.731Z,98312.88
2022-10-22T10:07:31.796Z,98312.88
2022-10-22T10:10:00.579Z,98312.06
2022-10-22T10:12:39.969Z,98312.16
2022-10-22T10:15:19.786Z,98310.66
2022-10-22T10:17:57.026Z,98314.91
2022-10-22T10:20:36.256Z,98320.38
2022-10-22T10:23:12.468Z,98330.09
2022-10-22T10:25:50.454Z,98323.13
2022-10-22T10:28:54.167Z,98315.94
2022-10-22T10:31:37.056Z,98327.06
2022-10-22T10:34:18.968Z,98329.94
2022-10-22T10:36:57.444Z,98337.00
2022-10-22T10:39:36.008Z,98335.00
2022-10-22T10:42:14.074Z,98339.63
2022-10-22T10:44:58.327Z,98335.75
2022-10-22T10:47:52.342Z,98336.13
2022-10-22T10:50:30.586Z,98332.56
2022-10-22T10:53:14.118Z,98341.91
2022-10-22T10:55:56.137Z,98339.88
2022-10-22T10:58:33.125Z,98340.63
2022-10-22T11:01:14.059Z,98343.09
2022-10-22T11:04:00.415Z,98342.50
2022-10-22T11:06:31.618Z,98344.91
2022-10-22T11:09:06.437Z,98343.97
2022-10-22T11:11:37.794Z,98335.91
2022-10-22T11:14:12.718Z,98326.78
2022-10-22T11:16:48.739Z,98326.66
2022-10-22T11:19:46.047Z,98329.41
2022-10-22T11:22:26.626Z,98332.09
2022-10-22T11:25:01.209Z,98335.13
2022-10-22T11:27:38.233Z,98337.03
2022-10-22T11:30:15.089Z,98336.16
2022-10-22T11:32:49.126Z,98333.41
2022-10-22T11:35:25.693Z,98327.75
2022-10-22T11:37:57.695Z,98320.72
2022-10-22T11:40:37.369Z,98327.69
2022-10-22T11:43:08.578Z,98323.06
2022-10-22T11:45:39.701Z,98313.25
2022-10-22T11:48:19.275Z,98314.41
2022-10-22T11:50:56.743Z,98315.91
2022-10-22T11:53:33.236Z,98324.22
2022-10-22T11:56:23.972Z,98311.50
2022-10-22T11:58:54.799Z,98318.13
2022-10-22T12:01:30.797Z,98316.22
2022-10-22T12:04:21.322Z,98310.06
2022-10-22T12:06:56.746Z,98310.78
2022-10-22T12:09:26.589Z,98314.81
2022-10-22T12:11:55.679Z,98309.97
2022-10-22T12:14:26.762Z,98313.34
2022-10-22T12:16:58.912Z,98315.84
2022-10-22T12:19:37.222Z,98310.03
2022-10-22T12:22:16.236Z,98310.97
2022-10-22T12:24:47.832Z,98307.63
2022-10-22T12:27:22.761Z,98304.16
2022-10-22T12:29:56.742Z,98299.03
2022-10-22T12:32:34.275Z,98293.66
2022-10-22T12:35:09.291Z,98292.22
2022-10-22T12:37:39.128Z,98290.69
2022-10-22T12:40:20.721Z,98287.84
2022-10-22T12:42:54.952Z,98282.50
2022-10-22T12:45:24.839Z,98284.00
2022-10-22T12:47:58.557Z,98285.78
2022-10-22T12:50:34.331Z,98286.75
2022-10-22T12:53:02.774Z,98280.50
2022-10-22T12:55:35.065Z,98278.47
2022-10-22T12:58:07.329Z,98276.75
2022-10-22T13:00:37.256Z,98284.22
2022-10-22T13:03:08.083Z,98277.19
2022-10-22T13:05:39.786Z,98278.63
2022-10-22T13:08:12.474Z,98266.19
2022-10-22T13:10:42.879Z,98276.63
2022-10-22T13:13:42.948Z,98269.94
2022-10-22T13:16:17.618Z,98272.59
2022-10-22T13:18:47.494Z,98276.09
2022-10-22T13:21:29.489Z,98269.50
2022-10-22T13:24:00.853Z,98275.25
2022-10-22T13:26:35.635Z,98263.53
2022-10-22T13:29:11.023Z,98269.94
2022-10-22T13:31:47.659Z,98264.38
2022-10-22T13:34:21.168Z,98269.47
2022-10-22T13:36:51.593Z,98263.22
2022-10-22T13:39:22.011Z,98269.97
2022-10-22T13:41:51.710Z,98257.78
2022-10-22T13:44:20.341Z,98272.91
2022-10-22T13:46:49.508Z,98266.31
2022-10-22T13:49:22.438Z,98269.94
2022-10-22T13:51:52.882Z,98268.28
2022-10-22T13:54:24.181Z,98266.63
2022-10-22T13:56:53.516Z,98264.97
2022-10-22T13:59:23.806Z,98261.63
2022-10-22T14:01:53.147Z,98265.28
2022-10-22T14:04:21.578Z,98263.19
2022-10-22T14:06:51.411Z,98259.69
2022-10-22T14:09:20.013Z,98264.72
2022-10-22T14:11:48.276Z,98264.63
2022-10-22T14:14:17.292Z,98259.44
2022-10-22T14:16:45.969Z,98258.44
2022-10-22T14:19:17.770Z,98261.03
2022-10-22T14:21:46.202Z,98256.72
2022-10-22T14:24:15.861Z,98263.91
2022-10-22T14:26:44.204Z,98265.88
2022-10-22T14:29:12.471Z,98268.22
2022-10-22T14:31:43.583Z,98261.47
2022-10-22T14:34:13.994Z,98257.88
2022-10-22T14:36:43.720Z,98269.63
2022-10-22T14:39:12.537Z,98266.56
2022-10-22T14:41:42.956Z,98265.94
2022-10-22T14:44:14.430Z,98260.59
2022-10-22T14:46:44.303Z,98268.81
2022-10-22T14:49:12.807Z,98258.34
2022-10-22T14:51:41.043Z,98260.81
2022-10-22T14:54:09.251Z,98252.53
2022-10-22T14:59:12.557Z,98264.81
2022-10-22T15:01:42.762Z,98259.03
2022-10-22T15:04:11.330Z,98264.88
2022-10-22T15:06:39.748Z,98271.97
2022-10-22T15:09:08.128Z,98270.25
2022-10-22T15:11:36.816Z,98269.59
2022-10-22T15:14:05.068Z,98271.28
2022-10-22T15:16:34.732Z,98277.31
2022-10-22T15:19:02.971Z,98280.78
2022-10-22T15:21:31.398Z,98279.50
2022-10-22T15:24:00.725Z,98282.91
2022-10-22T15:26:29.281Z,98275.69
2022-10-22T15:28:57.809Z,98283.47
2022-10-22T15:31:48.142Z,98276.75
2022-10-22T15:34:21.653Z,98278.59
2022-10-22T15:36:50.096Z,98281.63
2022-10-22T15:39:18.754Z,98273.09
2022-10-22T15:41:47.815Z,98270.53
2022-10-22T15:44:18.453Z,98266.28
2022-10-22T15:46:48.148Z,98262.19
2022-10-22T15:49:16.653Z,98272.59
2022-10-22T15:51:45.205Z,98266.34
2022-10-22T15:54:16.199Z,98273.28
2022-10-22T15:56:45.106Z,98276.03
2022-10-22T15:59:16.845Z,98275.53
2022-10-22T16:01:47.330Z,98280.28
2022-10-22T16:04:16.275Z,98281.09
2022-10-22T16:06:47.060Z,98279.13
2022-10-22T16:09:18.088Z,98272.19
2022-10-22T16:11:46.886Z,98277.31
2022-10-22T16:14:19.828Z,98277.63
2022-10-22T16:16:52.230Z,98275.28
2022-10-22T16:19:23.333Z,98287.06
2022-10-22T16:21:53.687Z,98281.72
2022-10-22T16:24:22.922Z,98289.38
2022-10-22T16:26:53.157Z,98285.69
2022-10-22T16:29:21.518Z,98285.16
2022-10-22T16:31:51.120Z,98288.88
2022-10-22T16:34:19.484Z,98288.75
2022-10-22T16:36:48.846Z,98293.06
2022-10-22T16:39:17.516Z,98289.75
2022-10-22T16:41:46.768Z,98288.88
2022-10-22T16:44:15.159Z,98287.69
2022-10-22T16:46:43.678Z,98295.63
2022-10-22T16:49:13.277Z,98304.25
2022-10-22T16:51:44.892Z,98306.78
2022-10-22T16:54:15.552Z,98310.56
2022-10-22T16:56:43.840Z,98319.34
2022-10-22T16:59:12.125Z,98309.72
2022-10-22T17:01:41.509Z,98310.44
2022-10-22T17:04:10.669Z,98316.13
2022-10-22T17:06:40.753Z,98313.13
2022-10-22T17:09:09.147Z,98310.41
2022-10-22T17:11:40.109Z,98316.91
2022-10-22T17:14:11.235Z,98317.75
2022-10-22T17:16:39.629Z,98320.53
2022-10-22T17:19:08.082Z,98316.94
2022-10-22T17:21:36.466Z,98312.84
2022-10-22T17:24:06.451Z,98315.31
2022-10-22T17:26:35.477Z,98324.56
2022-10-22T17:29:03.768Z,98327.78
2022-10-22T17:31:35.527Z,98318.53
2022-10-22T17:34:05.332Z,98327.66
2022-10-22T17:36:35.919Z,98331.25
2022-10-22T17:39:08.302Z,98328.63
2022-10-22T17:41:38.589Z,98332.91
2022-10-22T17:44:09.788Z,98335.25
2022-10-22T17:46:39.296Z,98346.31
2022-10-22T17:49:14.456Z,98345.06
2022-10-22T17:51:42.803Z,98344.88
2022-10-22T17:54:13.118Z,98354.66
2022-10-22T17:56:41.859Z,98354.78
2022-10-22T17:59:11.086Z,98351.63
2022-10-22T18:01:45.062Z,98347.47
2022-10-22T18:04:17.347Z,98356.59
2022-10-22T18:06:47.109Z,98353.41
2022-10-22T18:09:19.526Z,98349.81
2022-10-22T18:11:49.011Z,98363.69
2022-10-22T18:14:18.731Z,98362.81
2022-10-22T18:16:47.737Z,98353.69
2022-10-22T18:19:19.292Z,98351.56
2022-10-22T18:21:47.897Z,98342.47
2022-10-22T18:24:38.903Z,98347.28
2022-10-22T18:27:07.244Z,98343.53
2022-10-22T18:29:35.588Z,98340.00
2022-10-22T18:32:09.413Z,98347.09
2022-10-22T18:34:40.887Z,98346.34
2022-10-22T18:37:09.233Z,98348.09
2022-10-22T18:39:38.943Z,98350.50
2022-10-22T18:42:07.636Z,98351.25
2022-10-22T18:44:37.308Z,98353.44
2022-10-22T18:47:06.174Z,98348.94
2022-10-22T18:49:34.483Z,98356.81
2022-10-22T18:52:02.942Z,98350.19
2022-10-22T18:54:31.211Z,98350.34
2022-10-22T18:57:03.203Z,98347.13
2022-10-22T18:59:32.490Z,98347.59
2022-10-22T19:02:01.271Z,98345.50
2022-10-22T19:04:32.988Z,98346.47
2022-10-22T19:07:01.855Z,98346.19
2022-10-22T19:09:30.474Z,98348.34
2022-10-22T19:12:01.078Z,98340.53
2022-10-22T19:14:29.588Z,98351.50
2022-10-22T19:16:57.951Z,98343.31
2022-10-22T19:19:26.358Z,98351.75
2022-10-22T19:21:56.439Z,98343.34
2022-10-22T19:24:24.761Z,98337.06
2022-10-22T19:26:53.314Z,98341.81
2022-10-22T19:29:23.427Z,98347.13
2022-10-22T19:31:51.859Z,98349.50
2022-10-22T19:34:21.276Z,98347.03
2022-10-22T19:36:51.698Z,98356.41
2022-10-22T19:39:20.319Z,98357.00
2022-10-22T19:41:48.672Z,98349.44
2022-10-22T19:44:17.036Z,98347.16
2022-10-22T19:46:46.770Z,98351.91
2022-10-22T19:49:18.914Z,98350.13
2022-10-22T19:51:50.342Z,98344.28
2022-10-22T19:54:20.336Z,98340.97
2022-10-22T19:56:49.635Z,98348.06
2022-10-22T19:59:20.600Z,98342.84
2022-10-22T20:01:50.321Z,98344.16
2022-10-22T20:04:20.393Z,98338.22
2022-10-22T20:06:48.715Z,98342.03
2022-10-22T20:09:17.169Z,98344.16
2022-10-22T20:11:45.636Z,98349.47
2022-10-22T20:14:14.780Z,98355.75
2022-10-22T20:16:43.208Z,98357.03
2022-10-22T20:19:16.040Z,98355.50
2022-10-22T20:21:45.389Z,98371.50
2022-10-22T20:24:14.223Z,98364.84
2022-10-22T20:26:42.610Z,98366.59
2022-10-22T20:29:14.546Z,98364.00
2022-10-22T20:31:43.080Z,98358.09
2022-10-22T20:34:12.768Z,98362.09
2022-10-22T20:36:42.601Z,98362.22
2022-10-22T20:39:14.588Z,98359.50
2022-10-22T20:41:43.142Z,98370.97
2022-10-22T20:44:16.846Z,98367.03
2022-10-22T20:46:45.768Z,98366.56
2022-10-22T20:49:18.327Z,98371.25
2022-10-22T20:51:47.308Z,98367.13
2022-10-22T20:54:16.759Z,98373.25
2022-10-22T20:56:45.583Z,98369.84
2022-10-22T20:59:14.034Z,98376.41
2022-10-22T21:01:46.830Z,98370.28
2022-10-22T21:04:17.880Z,98365.09
2022-10-22T21:06:46.215Z,98361.13
2022-10-22T21:09:17.676Z,98359.28
2022-10-22T21:11:46.712Z,98363.03
2022-10-22T21:14:19.704Z,98363.13
2022-10-22T21:16:50.918Z,98357.22
2022-10-22T21:19:22.417Z,98351.97
2022-10-22T21:21:51.197Z,98352.38
2022-10-22T21:24:19.712Z,98351.41
2022-10-22T21:26:48.248Z,98351.13
2022-10-22T21:29:16.626Z,98348.03
2022-10-22T21:31:44.979Z,98345.88
2022-10-22T21:34:17.202Z,98349.41
2022-10-22T21:39:20.180Z,98356.00
2022-10-22T21:41:48.444Z,98358.59
2022-10-22T21:44:17.467Z,98351.94
2022-10-22T21:46:45.771Z,98361.44
2022-10-22T21:49:14.379Z,98350.72
2022-10-22T21:51:45.826Z,98351.50
2022-10-22T21:54:14.220Z,98352.41
2022-10-22T21:56:42.968Z,98350.34
2022-10-22T21:59:13.059Z,98350.69
2022-10-22T22:01:41.684Z,98352.44
2022-10-22T22:04:10.103Z,98348.91
2022-10-22T22:06:38.640Z,98349.84
2022-10-22T22:09:08.430Z,98353.50
2022-10-22T22:11:36.745Z,98348.41
2022-10-22T22:14:05.024Z,98348.19
2022-10-22T22:16:35.245Z,98338.94
2022-10-22T22:19:06.731Z,98343.41
2022-10-22T22:21:36.467Z,98344.56
2022-10-22T22:24:07.458Z,98344.56
2022-10-22T22:26:35.782Z,98346.53
2022-10-22T22:29:04.151Z,98349.06
2022-10-22T22:31:35.414Z,98352.47
2022-10-22T22:34:06.134Z,98355.16
2022-10-22T22:36:37.224Z,98359.88
2022-10-22T22:39:08.827Z,98358.28
2022-10-22T22:41:37.200Z,98353.94
2022-10-22T22:44:06.225Z,98355.81
2022-10-22T22:46:35.118Z,98351.88
2022-10-22T22:49:03.488Z,98356.88
2022-10-22T22:51:32.303Z,98359.31
2022-10-22T22:54:01.831Z,98356.22
2022-10-22T22:56:34.461Z,98345.19
2022-10-22T22:59:03.302Z,98347.03
2022-10-22T23:01:33.520Z,98342.59
2022-10-22T23:04:04.543Z,98348.69
2022-10-22T23:06:36.176Z,98342.69
2022-10-22T23:09:05.676Z,98339.25
2022-10-22T23:11:36.088Z,98342.03
2022-10-22T23:14:06.900Z,98331.66
2022-10-22T23:16:38.388Z,98337.09
2022-10-22T23:19:07.327Z,98331.97
2022-10-22T23:21:38.462Z,98317.41
2022-10-22T23:24:10.796Z,98324.38
2022-10-22T23:26:42.751Z,98323.75
2022-10-22T23:29:14.451Z,98319.69
2022-10-22T23:31:44.071Z,98315.44
2022-10-22T23:34:16.822Z,98313.78
2022-10-22T23:36:46.072Z,98317.09
2022-10-22T23:39:17.113Z,98320.53
2022-10-22T23:41:47.224Z,98320.13
2022-10-22T23:44:15.849Z,98317.72
2022-10-22T23:46:44.419Z,98315.13
2022-10-22T23:49:13.719Z,98311.69
2022-10-22T23:51:42.442Z,98313.56
2022-10-22T23:54:14.501Z,98312.91
2022-10-22T23:56:43.144Z,98305.56
